createdAt,value
2023-02-04T00:02:05.942Z,4.05
2023-02-04T00:04:32.513Z,3.70
2023-02-04T00:06:59.066Z,4.05
2023-02-04T00:09:25.662Z,4.60
2023-02-04T00:11:52.219Z,4.43
2023-02-04T00:14:18.765Z,3.95
2023-02-04T00:16:45.297Z,4.95
2023-02-04T00:19:11.848Z,5.22
2023-02-04T00:21:38.416Z,3.35
2023-02-04T00:24:05.161Z,4.10
2023-02-04T00:26:31.697Z,3.85
2023-02-04T00:28:58.254Z,4.68
2023-02-04T00:31:25.485Z,4.22
2023-02-04T00:33:52.220Z,3.80
2023-02-04T00:36:18.784Z,4.32
2023-02-04T00:38:45.398Z,3.92
2023-02-04T00:41:11.974Z,3.63
2023-02-04T00:43:38.550Z,4.38
2023-02-04T00:46:05.453Z,4.07
2023-02-04T00:48:32.054Z,4.07
2023-02-04T00:50:58.665Z,4.13
2023-02-04T00:53:25.231Z,4.22
2023-02-04T00:55:51.794Z,4.03
2023-02-04T00:58:18.360Z,5.00
2023-02-04T01:00:45.071Z,4.22
2023-02-04T01:03:12.489Z,4.05
2023-02-04T01:05:39.082Z,5.07
2023-02-04T01:08:05.718Z,4.22
2023-02-04T01:10:32.696Z,4.47
2023-02-04T01:12:59.582Z,5.32
2023-02-04T01:15:26.212Z,4.05
2023-02-04T01:17:52.878Z,4.25
2023-02-04T01:20:19.457Z,3.75
2023-02-04T01:22:46.628Z,3.50
2023-02-04T01:25:13.192Z,4.15
2023-02-04T01:27:39.757Z,3.97
2023-02-04T01:30:07.892Z,4.22
2023-02-04T01:32:34.654Z,4.47
2023-02-04T01:35:01.221Z,5.68
2023-02-04T01:37:27.796Z,4.55
2023-02-04T01:39:54.466Z,3.58
2023-02-04T01:42:21.042Z,4.20
2023-02-04T01:44:47.905Z,3.10
2023-02-04T01:47:14.448Z,3.83
2023-02-04T01:49:41.289Z,4.57
2023-02-04T01:52:09.159Z,3.65
2023-02-04T01:54:35.749Z,3.63
2023-02-04T01:57:02.707Z,3.47
2023-02-04T01:59:29.388Z,3.85
2023-02-04T02:01:56.027Z,4.20
2023-02-04T02:04:32.916Z,4.20
2023-02-04T02:07:03.405Z,4.32
2023-02-04T02:09:31.237Z,3.55
2023-02-04T02:11:57.967Z,2.83
2023-02-04T02:14:24.564Z,3.58
2023-02-04T02:16:51.154Z,3.47
2023-02-04T02:19:22.470Z,3.00
2023-02-04T02:21:56.971Z,3.40
2023-02-04T02:24:32.284Z,3.05
2023-02-04T02:27:01.786Z,3.47
2023-02-04T02:29:28.469Z,3.33
2023-02-04T02:31:57.574Z,3.55
2023-02-04T02:34:25.636Z,3.35
2023-02-04T02:36:52.194Z,3.20
2023-02-04T02:39:19.165Z,3.20
2023-02-04T02:41:46.248Z,3.22
2023-02-04T02:44:14.166Z,2.45
2023-02-04T02:46:40.744Z,2.80
2023-02-04T02:49:11.042Z,2.88
2023-02-04T02:51:37.593Z,2.60
2023-02-04T02:54:04.302Z,2.50
2023-02-04T02:56:30.861Z,1.88
2023-02-04T02:58:58.527Z,2.55
2023-02-04T03:01:25.137Z,2.03
2023-02-04T03:03:52.210Z,3.17
2023-02-04T03:06:22.619Z,2.33
2023-02-04T03:08:51.003Z,2.75
2023-02-04T03:11:17.633Z,2.40
2023-02-04T03:13:44.278Z,2.58
2023-02-04T03:16:11.223Z,1.90
2023-02-04T03:18:38.287Z,2.05
2023-02-04T03:21:06.649Z,2.25
2023-02-04T03:23:34.239Z,2.40
2023-02-04T03:26:01.197Z,1.70
2023-02-04T03:28:27.871Z,2.20
2023-02-04T03:30:56.253Z,1.75
2023-02-04T03:33:31.494Z,1.30
2023-02-04T03:35:59.050Z,2.17
2023-02-04T03:38:26.079Z,2.38
2023-02-04T03:40:52.626Z,2.08
2023-02-04T03:43:19.501Z,2.05
2023-02-04T03:45:46.194Z,2.40
2023-02-04T03:48:13.270Z,2.55
2023-02-04T03:50:39.829Z,1.85
2023-02-04T03:53:06.418Z,1.58
2023-02-04T03:55:33.079Z,1.80
2023-02-04T03:57:59.737Z,1.50
2023-02-04T04:00:26.379Z,1.35
2023-02-04T04:02:53.093Z,0.63
2023-02-04T04:05:19.644Z,0.82
2023-02-04T04:07:46.241Z,2.45
2023-02-04T04:10:12.840Z,1.33
2023-02-04T04:12:39.402Z,1.00
2023-02-04T04:15:06.441Z,0.90
2023-02-04T04:17:33.113Z,0.82
2023-02-04T04:19:59.700Z,1.10
2023-02-04T04:22:26.289Z,0.90
2023-02-04T04:24:52.898Z,1.00
2023-02-04T04:27:19.524Z,1.13
2023-02-04T04:29:46.103Z,0.60
2023-02-04T04:32:12.644Z,1.10
2023-02-04T04:34:39.215Z,1.13
2023-02-04T04:37:05.773Z,0.70
2023-02-04T04:39:32.397Z,1.13
2023-02-04T04:41:59.041Z,1.08
2023-02-04T04:44:25.585Z,1.20
2023-02-04T04:46:52.273Z,1.65
2023-02-04T04:49:18.859Z,1.23
2023-02-04T04:51:45.456Z,1.20
2023-02-04T04:54:12.089Z,1.10
2023-02-04T04:56:38.623Z,1.10
2023-02-04T04:59:05.210Z,1.38
2023-02-04T05:01:31.895Z,1.27
2023-02-04T05:03:58.525Z,1.00
2023-02-04T05:06:25.476Z,0.98
2023-02-04T05:08:52.972Z,1.15
2023-02-04T05:11:19.973Z,1.20
2023-02-04T05:13:47.000Z,1.25
2023-02-04T05:16:13.929Z,1.20
2023-02-04T05:18:40.898Z,0.98
2023-02-04T05:21:08.378Z,1.33
2023-02-04T05:23:35.149Z,1.35
2023-02-04T05:26:01.774Z,1.90
2023-02-04T05:28:28.332Z,1.90
2023-02-04T05:30:54.965Z,1.00
2023-02-04T05:33:21.534Z,1.00
2023-02-04T05:35:49.844Z,0.77
2023-02-04T05:38:16.813Z,1.45
2023-02-04T05:40:43.349Z,0.88
2023-02-04T05:43:09.930Z,1.23
2023-02-04T05:45:36.651Z,0.98
2023-02-04T05:48:03.426Z,0.93
2023-02-04T05:50:30.162Z,1.33
2023-02-04T05:52:56.882Z,1.10
2023-02-04T05:55:23.476Z,1.33
2023-02-04T05:57:50.097Z,1.20
2023-02-04T06:00:16.858Z,1.60
2023-02-04T06:02:43.505Z,2.70
2023-02-04T06:05:10.369Z,1.88
2023-02-04T06:07:37.005Z,1.55
2023-02-04T06:10:03.838Z,1.38
2023-02-04T06:12:30.935Z,1.27
2023-02-04T06:14:57.530Z,1.70
2023-02-04T06:17:24.093Z,1.60
2023-02-04T06:19:50.623Z,1.25
2023-02-04T06:22:17.488Z,1.10
2023-02-04T06:24:45.167Z,1.60
2023-02-04T06:27:13.234Z,1.80
2023-02-04T06:29:39.807Z,1.58
2023-02-04T06:32:06.329Z,1.65
2023-02-04T06:34:32.872Z,1.50
2023-02-04T06:36:59.496Z,1.40
2023-02-04T06:39:26.038Z,1.45
2023-02-04T06:41:52.605Z,1.70
2023-02-04T06:44:19.155Z,1.67
2023-02-04T06:46:45.731Z,2.13
2023-02-04T06:49:12.336Z,1.60
2023-02-04T06:51:38.909Z,1.50
2023-02-04T06:54:05.534Z,1.33
2023-02-04T06:56:32.186Z,1.30
2023-02-04T06:58:58.747Z,1.67
2023-02-04T07:01:25.358Z,1.70
2023-02-04T07:03:51.954Z,1.80
2023-02-04T07:06:18.525Z,1.63
2023-02-04T07:08:45.097Z,1.42
2023-02-04T07:11:11.723Z,2.30
2023-02-04T07:13:38.366Z,1.10
2023-02-04T07:16:06.303Z,1.65
2023-02-04T07:18:33.175Z,2.03
2023-02-04T07:20:59.793Z,1.13
2023-02-04T07:23:28.055Z,1.38
2023-02-04T07:25:57.343Z,1.75
2023-02-04T07:28:23.970Z,1.65
2023-02-04T07:30:50.748Z,1.88
2023-02-04T07:33:17.562Z,2.20
2023-02-04T07:35:44.859Z,2.20
2023-02-04T07:38:11.449Z,1.90
2023-02-04T07:40:39.195Z,1.88
2023-02-04T07:43:05.921Z,1.98
2023-02-04T07:45:33.006Z,2.10
2023-02-04T07:47:59.677Z,1.60
2023-02-04T07:50:26.256Z,2.67
2023-02-04T07:52:52.836Z,2.05
2023-02-04T07:55:19.469Z,1.70
2023-02-04T07:57:46.107Z,1.75
2023-02-04T08:00:14.501Z,1.80
2023-02-04T08:02:41.905Z,1.88
2023-02-04T08:05:09.710Z,1.70
2023-02-04T08:07:36.339Z,2.08
2023-02-04T08:10:04.532Z,2.53
2023-02-04T08:12:31.098Z,1.98
2023-02-04T08:14:57.800Z,1.80
2023-02-04T08:17:24.475Z,2.05
2023-02-04T08:19:51.073Z,1.80
2023-02-04T08:22:17.725Z,1.52
2023-02-04T08:24:44.274Z,1.90
2023-02-04T08:27:11.781Z,1.63
2023-02-04T08:29:38.399Z,1.73
2023-02-04T08:32:05.194Z,2.20
2023-02-04T08:34:31.833Z,1.88
2023-02-04T08:36:58.435Z,2.17
2023-02-04T08:39:24.986Z,2.55
2023-02-04T08:41:51.655Z,2.10
2023-02-04T08:44:18.331Z,2.05
2023-02-04T08:46:44.969Z,2.10
2023-02-04T08:49:11.614Z,2.13
2023-02-04T08:51:38.202Z,1.88
2023-02-04T08:54:04.842Z,1.60
2023-02-04T08:56:31.450Z,1.60
2023-02-04T08:58:58.068Z,1.40
2023-02-04T09:01:25.276Z,1.50
2023-02-04T09:03:51.991Z,1.92
2023-02-04T09:06:18.636Z,1.50
2023-02-04T09:08:45.280Z,1.70
2023-02-04T09:11:12.396Z,1.65
2023-02-04T09:13:39.493Z,1.42
2023-02-04T09:16:06.235Z,1.77
2023-02-04T09:18:33.117Z,1.63
2023-02-04T09:20:59.663Z,1.63
2023-02-04T09:23:26.351Z,1.45
2023-02-04T09:25:53.033Z,1.48
2023-02-04T09:28:19.825Z,1.40
2023-02-04T09:30:47.268Z,1.58
2023-02-04T09:33:16.506Z,1.48
2023-02-04T09:35:43.112Z,1.88
2023-02-04T09:38:09.764Z,1.67
2023-02-04T09:40:43.278Z,1.48
2023-02-04T09:43:13.614Z,2.17
2023-02-04T09:45:40.473Z,1.50
2023-02-04T09:48:09.513Z,1.40
2023-02-04T09:50:36.829Z,1.67
2023-02-04T09:53:05.887Z,1.70
2023-02-04T09:55:44.406Z,1.50
2023-02-04T09:58:17.450Z,1.70
2023-02-04T10:00:45.472Z,1.65
2023-02-04T10:03:16.902Z,1.88
2023-02-04T10:05:44.677Z,1.38
2023-02-04T10:08:14.670Z,1.75
2023-02-04T10:10:41.606Z,1.50
2023-02-04T10:13:12.588Z,1.85
2023-02-04T10:15:39.174Z,1.50
2023-02-04T10:18:08.117Z,1.70
2023-02-04T10:20:34.839Z,1.70
2023-02-04T10:23:01.552Z,1.73
2023-02-04T10:25:28.220Z,1.48
2023-02-04T10:27:59.582Z,1.85
2023-02-04T10:30:35.821Z,1.67
2023-02-04T10:33:14.056Z,1.77
2023-02-04T10:35:48.157Z,1.85
2023-02-04T10:38:14.821Z,1.80
2023-02-04T10:40:42.786Z,1.65
2023-02-04T10:43:15.470Z,2.22
2023-02-04T10:45:47.251Z,1.52
2023-02-04T10:48:17.058Z,1.83
2023-02-04T10:50:44.358Z,1.55
2023-02-04T10:53:30.404Z,1.80
2023-02-04T10:55:57.432Z,1.60
2023-02-04T10:58:28.265Z,1.52
2023-02-04T11:00:54.889Z,1.80
2023-02-04T11:03:32.496Z,1.60
2023-02-04T11:06:00.554Z,1.52
2023-02-04T11:08:33.727Z,1.30
2023-02-04T11:11:08.781Z,1.15
2023-02-04T11:13:50.475Z,1.45
2023-02-04T11:16:23.268Z,1.50
2023-02-04T11:18:51.761Z,1.30
2023-02-04T11:21:30.192Z,1.42
2023-02-04T11:26:40.550Z,1.58
2023-02-04T11:29:07.112Z,1.48
2023-02-04T11:31:33.706Z,1.52
2023-02-04T11:34:24.253Z,1.40
2023-02-04T11:36:57.240Z,1.80
2023-02-04T11:39:28.553Z,1.40
2023-02-04T11:41:55.318Z,1.38
2023-02-04T11:44:23.132Z,1.10
2023-02-04T11:46:51.927Z,1.60
2023-02-04T11:49:20.263Z,1.40
2023-02-04T11:51:47.179Z,1.45
2023-02-04T11:54:18.970Z,1.55
2023-02-04T11:56:52.821Z,1.25
2023-02-04T11:59:21.480Z,1.35
2023-02-04T12:01:48.062Z,1.60
2023-02-04T12:04:25.128Z,1.30
2023-02-04T12:07:03.676Z,1.30
2023-02-04T12:09:31.567Z,1.48
2023-02-04T12:12:02.823Z,1.40
2023-02-04T12:14:36.671Z,1.30
2023-02-04T12:17:19.511Z,1.98
2023-02-04T12:19:46.239Z,1.50
2023-02-04T12:22:14.616Z,1.52
2023-02-04T12:24:41.717Z,1.60
2023-02-04T12:27:08.281Z,1.10
2023-02-04T12:29:34.874Z,1.70
2023-02-04T12:32:01.435Z,1.80
2023-02-04T12:34:28.946Z,1.20
2023-02-04T12:36:55.568Z,1.40
2023-02-04T12:39:22.182Z,1.65
2023-02-04T12:41:48.728Z,1.48
2023-02-04T12:44:17.292Z,1.60
2023-02-04T12:49:10.322Z,1.40
2023-02-04T12:51:36.877Z,2.55
2023-02-04T12:54:03.489Z,1.80
2023-02-04T12:56:30.034Z,1.40
2023-02-04T12:58:56.589Z,1.40
2023-02-04T13:01:23.169Z,1.50
2023-02-04T13:03:49.757Z,1.67
2023-02-04T13:06:16.382Z,1.30
2023-02-04T13:08:43.041Z,1.40
2023-02-04T13:11:09.638Z,1.35
2023-02-04T13:13:36.186Z,1.40
2023-02-04T13:16:02.865Z,1.65
2023-02-04T13:18:29.588Z,1.35
2023-02-04T13:20:56.156Z,1.42
2023-02-04T13:23:22.723Z,1.30
2023-02-04T13:25:49.298Z,1.40
2023-02-04T13:28:16.128Z,1.35
2023-02-04T13:30:42.761Z,1.30
2023-02-04T13:33:09.424Z,1.23
2023-02-04T13:35:36.075Z,1.20
2023-02-04T13:38:02.744Z,1.27
2023-02-04T13:40:29.357Z,1.60
2023-02-04T13:42:55.933Z,1.30
2023-02-04T13:45:23.227Z,1.30
2023-02-04T13:47:50.331Z,1.30
2023-02-04T13:50:17.111Z,1.20
2023-02-04T13:52:43.716Z,1.45
2023-02-04T13:55:10.431Z,1.10
2023-02-04T13:57:37.996Z,1.25
2023-02-04T14:00:06.917Z,1.30
2023-02-04T14:02:33.981Z,1.25
2023-02-04T14:05:00.642Z,1.50
2023-02-04T14:07:27.425Z,1.40
2023-02-04T14:09:54.473Z,1.50
2023-02-04T14:12:21.025Z,1.80
2023-02-04T14:14:47.624Z,1.45
2023-02-04T14:17:14.231Z,1.13
2023-02-04T14:19:40.817Z,1.50
2023-02-04T14:22:07.892Z,1.38
2023-02-04T14:24:35.197Z,1.25
2023-02-04T14:27:07.261Z,1.20
2023-02-04T14:29:34.629Z,1.25
2023-02-04T14:32:01.628Z,1.20
2023-02-04T14:34:28.250Z,1.05
2023-02-04T14:36:54.971Z,1.25
2023-02-04T14:39:21.604Z,1.20
2023-02-04T14:41:48.273Z,1.30
2023-02-04T14:44:20.648Z,1.20
2023-02-04T14:46:51.177Z,1.42
2023-02-04T14:49:17.780Z,1.48
2023-02-04T14:51:44.787Z,1.30
2023-02-04T14:54:11.637Z,1.70
2023-02-04T14:56:38.343Z,1.52
2023-02-04T14:59:05.189Z,1.45
2023-02-04T15:01:32.659Z,1.35
2023-02-04T15:03:59.356Z,1.30
2023-02-04T15:06:26.120Z,1.80
2023-02-04T15:08:52.874Z,1.50
2023-02-04T15:11:19.500Z,1.50
2023-02-04T15:13:46.088Z,1.52
2023-02-04T15:16:14.429Z,1.20
2023-02-04T15:18:41.618Z,1.60
2023-02-04T15:21:08.406Z,1.50
2023-02-04T15:23:35.050Z,1.52
2023-02-04T15:26:01.686Z,1.40
2023-02-04T15:28:29.871Z,1.40
2023-02-04T15:30:56.728Z,1.40
2023-02-04T15:33:24.065Z,1.27
2023-02-04T15:35:50.606Z,1.50
2023-02-04T15:38:17.183Z,1.27
2023-02-04T15:40:43.728Z,1.52
2023-02-04T15:43:10.321Z,1.27
2023-02-04T15:45:41.285Z,1.50
2023-02-04T15:48:08.508Z,1.40
2023-02-04T15:50:35.129Z,1.60
2023-02-04T15:53:01.803Z,2.05
2023-02-04T15:55:28.650Z,1.48
2023-02-04T15:57:55.341Z,1.50
2023-02-04T16:00:22.880Z,1.45
2023-02-04T16:02:49.500Z,1.33
2023-02-04T16:05:16.125Z,1.42
2023-02-04T16:07:42.711Z,1.55
2023-02-04T16:10:09.749Z,1.40
2023-02-04T16:12:36.568Z,1.40
2023-02-04T16:15:03.296Z,1.40
2023-02-04T16:17:29.917Z,1.42
2023-02-04T16:19:57.308Z,1.48
2023-02-04T16:22:23.919Z,1.70
2023-02-04T16:24:52.812Z,1.75
2023-02-04T16:27:19.994Z,1.50
2023-02-04T16:29:46.946Z,1.80
2023-02-04T16:32:14.122Z,1.55
2023-02-04T16:34:45.520Z,1.67
2023-02-04T16:37:12.149Z,1.55
2023-02-04T16:39:44.653Z,1.70
2023-02-04T16:42:13.583Z,1.48
2023-02-04T16:44:40.322Z,1.38
2023-02-04T16:47:08.801Z,1.50
2023-02-04T16:52:04.477Z,1.83
2023-02-04T16:54:32.092Z,2.05
2023-02-04T16:57:00.234Z,2.77
2023-02-04T16:59:27.996Z,2.70
2023-02-04T17:01:57.772Z,3.15
2023-02-04T17:04:25.132Z,2.75
2023-02-04T17:06:52.050Z,2.50
2023-02-04T17:09:18.688Z,2.50
2023-02-04T17:11:45.525Z,2.95
2023-02-04T17:14:16.389Z,2.95
2023-02-04T17:16:44.019Z,3.67
2023-02-04T17:19:10.920Z,4.33
2023-02-04T17:21:39.259Z,4.28
2023-02-04T17:24:07.401Z,3.45
2023-02-04T17:26:38.412Z,3.17
2023-02-04T17:29:12.382Z,3.10
2023-02-04T17:31:39.224Z,2.75
2023-02-04T17:34:06.240Z,2.92
2023-02-04T17:36:32.852Z,2.38
2023-02-04T17:38:59.586Z,2.63
2023-02-04T17:41:26.278Z,2.63
2023-02-04T17:43:53.072Z,2.83
2023-02-04T17:46:20.149Z,2.78
2023-02-04T17:48:46.830Z,3.30
2023-02-04T17:51:13.834Z,2.70
2023-02-04T17:53:40.659Z,2.97
2023-02-04T17:56:12.266Z,3.00
2023-02-04T17:58:38.944Z,2.50
2023-02-04T18:01:14.346Z,3.08
2023-02-04T18:03:42.759Z,3.00
2023-02-04T18:08:47.361Z,4.05
2023-02-04T18:11:36.641Z,3.85
2023-02-04T18:14:13.294Z,3.53
2023-02-04T18:16:40.196Z,3.90
2023-02-04T18:19:21.706Z,4.15
2023-02-04T18:21:51.379Z,4.25
2023-02-04T18:24:34.161Z,4.65
2023-02-04T18:27:09.082Z,4.60
2023-02-04T18:29:37.552Z,3.72
2023-02-04T18:34:40.589Z,3.67
2023-02-04T18:37:37.461Z,3.75
2023-02-04T18:40:10.135Z,3.35
2023-02-04T18:42:38.599Z,3.42
2023-02-04T18:47:46.129Z,3.60
2023-02-04T18:50:26.531Z,3.97
2023-02-04T18:52:53.198Z,3.15
2023-02-04T18:55:34.884Z,3.60
2023-02-04T18:58:13.660Z,3.65
2023-02-04T19:00:40.743Z,3.60
2023-02-04T19:03:29.421Z,4.00
2023-02-04T19:05:58.795Z,3.58
2023-02-04T19:08:44.473Z,4.10
2023-02-04T19:11:33.544Z,4.00
2023-02-04T19:14:00.512Z,3.70
2023-02-04T19:16:38.598Z,3.85
2023-02-04T19:19:23.966Z,4.28
2023-02-04T19:21:50.786Z,3.83
2023-02-04T19:24:29.882Z,4.32
2023-02-04T19:27:01.544Z,4.30
2023-02-04T19:29:37.973Z,5.05
2023-02-04T19:32:16.905Z,5.07
2023-02-04T19:34:43.499Z,5.57
2023-02-04T19:37:26.937Z,6.03
2023-02-04T19:39:54.893Z,5.53
2023-02-04T19:42:29.221Z,5.43
2023-02-04T19:44:59.362Z,5.57
2023-02-04T19:47:30.235Z,8.10
2023-02-04T19:50:21.339Z,6.03
2023-02-04T19:52:52.297Z,5.10
2023-02-04T19:55:26.259Z,6.57
2023-02-04T19:58:17.516Z,6.00
2023-02-04T20:00:46.902Z,5.70
2023-02-04T20:03:22.722Z,16.42
2023-02-04T20:05:49.285Z,10.75
2023-02-04T20:08:45.175Z,5.50
2023-02-04T20:11:17.845Z,4.75
2023-02-04T20:13:44.651Z,4.57
2023-02-04T20:16:43.546Z,4.35
2023-02-04T20:19:30.192Z,4.30
2023-02-04T20:22:08.790Z,4.05
2023-02-04T20:24:37.081Z,4.45
2023-02-04T20:27:26.099Z,4.57
2023-02-04T20:30:12.866Z,4.47
2023-02-04T20:32:47.683Z,5.18
2023-02-04T20:35:14.207Z,5.57
2023-02-04T20:37:44.079Z,4.85
2023-02-04T20:40:20.262Z,4.30
2023-02-04T20:42:52.926Z,4.53
2023-02-04T20:45:49.938Z,3.88
2023-02-04T20:48:16.492Z,4.78
2023-02-04T20:50:52.066Z,4.75
2023-02-04T20:53:29.597Z,5.47
2023-02-04T20:56:22.028Z,12.65
2023-02-04T20:58:49.766Z,7.45
2023-02-04T21:01:20.558Z,8.13
2023-02-04T21:03:47.570Z,6.05
2023-02-04T21:06:27.683Z,5.85
2023-02-04T21:08:56.236Z,5.53
2023-02-04T21:11:23.058Z,5.10
2023-02-04T21:13:50.881Z,5.88
2023-02-04T21:16:17.517Z,5.03
2023-02-04T21:18:46.295Z,5.07
2023-02-04T21:21:13.665Z,5.63
2023-02-04T21:23:40.351Z,5.15
2023-02-04T21:26:07.296Z,5.63
2023-02-04T21:28:34.012Z,5.70
2023-02-04T21:31:01.003Z,5.75
2023-02-04T21:33:27.784Z,5.18
2023-02-04T21:35:54.376Z,5.15
2023-02-04T21:38:20.996Z,4.57
2023-02-04T21:40:48.490Z,4.68
2023-02-04T21:43:15.052Z,4.83
2023-02-04T21:45:41.662Z,4.68
2023-02-04T21:48:08.290Z,5.35
2023-02-04T21:50:35.377Z,5.18
2023-02-04T21:53:01.992Z,5.13
2023-02-04T21:55:29.100Z,4.65
2023-02-04T21:57:55.880Z,4.70
2023-02-04T22:00:23.876Z,4.68
2023-02-04T22:02:51.878Z,5.10
2023-02-04T22:05:19.125Z,4.75
2023-02-04T22:07:45.912Z,5.18
2023-02-04T22:10:19.431Z,4.65
2023-02-04T22:12:46.043Z,4.95
2023-02-04T22:15:12.655Z,5.15
2023-02-04T22:17:39.218Z,4.85
2023-02-04T22:20:06.322Z,5.03
2023-02-04T22:22:33.015Z,4.63
2023-02-04T22:24:59.597Z,4.50
2023-02-04T22:27:26.154Z,5.00
2023-02-04T22:29:52.874Z,4.80
2023-02-04T22:32:19.450Z,4.60
2023-02-04T22:34:46.045Z,5.53
2023-02-04T22:37:12.619Z,4.97
2023-02-04T22:39:39.214Z,5.03
2023-02-04T22:42:06.707Z,4.88
2023-02-04T22:44:33.289Z,4.80
2023-02-04T22:46:59.872Z,5.07
2023-02-04T22:49:26.465Z,4.50
2023-02-04T22:51:53.006Z,5.20
2023-02-04T22:54:19.626Z,5.40
2023-02-04T22:56:46.194Z,4.93
2023-02-04T22:59:12.748Z,5.05
2023-02-04T23:01:39.375Z,5.15
2023-02-04T23:04:05.958Z,4.55
2023-02-04T23:06:33.361Z,12.20
2023-02-04T23:08:59.939Z,10.52
2023-02-04T23:11:26.526Z,9.98
2023-02-04T23:13:53.097Z,9.88
2023-02-04T23:16:19.786Z,9.75
2023-02-04T23:18:46.670Z,6.15
2023-02-04T23:21:14.168Z,5.38
2023-02-04T23:23:41.556Z,5.70
2023-02-04T23:26:08.206Z,14.90
2023-02-04T23:28:34.760Z,10.60
2023-02-04T23:31:01.499Z,9.13
2023-02-04T23:33:28.126Z,6.75
2023-02-04T23:35:54.840Z,7.80
2023-02-04T23:38:21.471Z,7.25
2023-02-04T23:40:48.071Z,6.65
2023-02-04T23:43:14.916Z,10.15
2023-02-04T23:45:45.265Z,9.43
2023-02-04T23:48:12.232Z,9.02
2023-02-04T23:50:38.810Z,6.70
2023-02-04T23:53:05.373Z,6.65
2023-02-04T23:55:33.254Z,6.13
2023-02-04T23:58:00.286Z,5.97
